Decodificação METAR

METAR SBRJ 231200Z 31015G27KT 280V350 4000 -RA SCT020 BKN120 25/20 Q1012 =

Passe o mouse sobre os campos da mensagem para decodificar.